createdAt,value
2023-05-10T00:00:49.027Z,11.48
2023-05-10T00:02:21.383Z,12.00
2023-05-10T00:03:53.669Z,11.07
2023-05-10T00:05:25.859Z,12.13
2023-05-10T00:06:58.085Z,12.32
2023-05-10T00:08:30.207Z,12.40
2023-05-10T00:10:02.246Z,12.43
2023-05-10T00:11:34.384Z,12.15
2023-05-10T00:13:09.308Z,11.38
2023-05-10T00:14:41.403Z,11.88
2023-05-10T00:16:14.477Z,11.90
2023-05-10T00:17:46.725Z,11.68
2023-05-10T00:19:19.066Z,12.07
2023-05-10T00:20:51.364Z,11.45
2023-05-10T00:22:23.570Z,11.43
2023-05-10T00:23:56.452Z,12.38
2023-05-10T00:25:28.659Z,12.30
2023-05-10T00:27:02.080Z,12.45
2023-05-10T00:30:07.703Z,12.00
2023-05-10T00:31:39.905Z,12.07
2023-05-10T00:33:12.946Z,12.57
2023-05-10T00:34:47.745Z,11.93
2023-05-10T00:36:19.895Z,11.90
2023-05-10T00:37:51.998Z,12.15
2023-05-10T00:39:24.099Z,12.05
2023-05-10T00:40:56.447Z,12.60
2023-05-10T00:42:28.535Z,12.60
2023-05-10T00:45:39.283Z,13.18
2023-05-10T00:47:12.230Z,11.80
2023-05-10T00:48:45.301Z,12.00
2023-05-10T00:50:18.097Z,12.73
2023-05-10T00:51:51.019Z,12.55
2023-05-10T00:53:23.396Z,12.25
2023-05-10T00:54:56.115Z,11.93
2023-05-10T00:56:29.840Z,12.20
2023-05-10T00:58:02.941Z,12.18
2023-05-10T00:59:35.517Z,11.48
2023-05-10T01:01:08.437Z,12.23
2023-05-10T01:02:40.996Z,11.70
2023-05-10T01:04:17.170Z,12.18
2023-05-10T01:05:49.297Z,11.63
2023-05-10T01:07:21.380Z,12.35
2023-05-10T01:08:53.420Z,11.70
2023-05-10T01:10:25.641Z,12.38
2023-05-10T01:11:58.095Z,11.90
2023-05-10T01:13:34.860Z,12.93
2023-05-10T01:15:08.620Z,11.38
2023-05-10T01:16:42.204Z,12.38
2023-05-10T01:19:46.048Z,11.77
2023-05-10T01:21:44.908Z,11.90
2023-05-10T01:23:44.506Z,11.88
2023-05-10T01:25:44.506Z,11.15
2023-05-10T01:27:25.864Z,11.38
2023-05-10T01:29:20.024Z,12.35
2023-05-10T01:31:28.616Z,11.73
2023-05-10T01:33:19.776Z,11.60
2023-05-10T01:34:58.719Z,11.68
2023-05-10T01:36:52.795Z,12.48
2023-05-10T01:38:44.943Z,12.02
2023-05-10T01:40:52.858Z,10.85
2023-05-10T01:42:27.710Z,11.35
2023-05-10T01:44:25.092Z,13.05
2023-05-10T01:46:06.102Z,11.73
2023-05-10T01:49:14.743Z,11.23
2023-05-10T01:50:48.084Z,10.82
2023-05-10T01:52:22.274Z,11.55
2023-05-10T01:54:02.132Z,10.82
2023-05-10T01:55:37.011Z,11.77
2023-05-10T01:57:10.477Z,12.77
2023-05-10T02:00:16.481Z,10.77
2023-05-10T02:01:49.330Z,11.18
2023-05-10T02:03:26.125Z,11.90
2023-05-10T02:04:58.813Z,11.43
2023-05-10T02:06:32.057Z,11.82
2023-05-10T02:08:10.463Z,11.95
2023-05-10T02:09:44.672Z,12.25
2023-05-10T02:11:17.083Z,12.15
2023-05-10T02:12:49.759Z,11.63
2023-05-10T02:14:22.660Z,11.57
2023-05-10T02:15:55.125Z,11.80
2023-05-10T02:17:27.817Z,11.90
2023-05-10T02:19:00.903Z,11.45
2023-05-10T02:20:33.345Z,11.18
2023-05-10T02:23:42.284Z,11.70
2023-05-10T02:25:14.970Z,12.35
2023-05-10T02:26:49.067Z,12.00
2023-05-10T02:28:22.829Z,11.98
2023-05-10T02:29:56.031Z,11.98
2023-05-10T02:31:28.241Z,12.10
2023-05-10T02:33:01.347Z,12.23
2023-05-10T02:34:33.957Z,11.95
2023-05-10T02:36:07.182Z,12.15
2023-05-10T02:37:40.293Z,12.95
2023-05-10T02:39:14.876Z,11.85
2023-05-10T02:40:47.896Z,12.35
2023-05-10T02:42:21.591Z,12.57
2023-05-10T02:43:57.678Z,12.18
2023-05-10T02:45:32.015Z,12.32
2023-05-10T02:47:05.433Z,11.68
2023-05-10T02:50:10.026Z,12.68
2023-05-10T02:51:54.077Z,12.55
2023-05-10T02:55:07.010Z,12.05
2023-05-10T02:56:44.309Z,12.65
2023-05-10T02:58:16.469Z,13.13
2023-05-10T02:59:48.688Z,12.50
2023-05-10T03:01:20.883Z,11.85
2023-05-10T03:02:53.443Z,13.02
2023-05-10T03:04:25.579Z,12.63
2023-05-10T03:05:58.077Z,12.43
2023-05-10T03:09:03.842Z,11.85
2023-05-10T03:10:42.260Z,12.73
2023-05-10T03:12:24.610Z,11.93
2023-05-10T03:14:04.907Z,12.77
2023-05-10T03:15:55.485Z,12.85
2023-05-10T03:17:32.690Z,12.73
2023-05-10T03:19:19.706Z,13.43
2023-05-10T03:20:53.076Z,13.20
2023-05-10T03:24:07.784Z,12.80
2023-05-10T03:25:42.336Z,12.02
2023-05-10T03:27:16.064Z,12.95
2023-05-10T03:28:49.691Z,13.73
2023-05-10T03:30:22.092Z,12.98
2023-05-10T03:31:54.226Z,12.55
2023-05-10T03:33:26.426Z,12.48
2023-05-10T03:34:58.534Z,12.43
2023-05-10T03:36:33.458Z,13.00
2023-05-10T03:38:05.838Z,13.02
2023-05-10T03:39:38.130Z,12.85
2023-05-10T03:41:10.287Z,13.05
2023-05-10T03:44:14.315Z,12.43
2023-05-10T03:45:46.488Z,13.35
2023-05-10T03:47:18.593Z,12.68
2023-05-10T03:48:50.701Z,12.70
2023-05-10T03:50:22.987Z,12.23
2023-05-10T03:51:56.190Z,13.25
2023-05-10T03:53:28.439Z,12.50
2023-05-10T03:55:00.554Z,12.80
2023-05-10T03:56:32.874Z,12.50
2023-05-10T03:58:04.966Z,12.55
2023-05-10T03:59:37.311Z,11.73
2023-05-10T04:01:09.458Z,12.02
2023-05-10T04:02:41.833Z,12.32
2023-05-10T04:04:14.039Z,12.60
2023-05-10T04:05:46.330Z,12.15
2023-05-10T04:07:19.442Z,12.68
2023-05-10T04:08:51.635Z,11.13
2023-05-10T04:10:23.699Z,11.90
2023-05-10T04:11:55.882Z,11.63
2023-05-10T04:13:28.127Z,11.68
2023-05-10T04:15:00.389Z,12.35
2023-05-10T04:16:32.552Z,11.52
2023-05-10T04:18:06.511Z,10.98
2023-05-10T04:19:40.139Z,12.10
2023-05-10T04:21:15.513Z,11.38
2023-05-10T04:22:47.705Z,11.52
2023-05-10T04:24:19.905Z,11.88
2023-05-10T04:25:52.035Z,11.75
2023-05-10T04:27:24.262Z,11.73
2023-05-10T04:28:56.439Z,12.05
2023-05-10T04:30:31.279Z,11.77
2023-05-10T04:32:03.577Z,12.80
2023-05-10T04:33:36.955Z,12.82
2023-05-10T04:36:41.326Z,12.70
2023-05-10T04:38:13.539Z,11.88
2023-05-10T04:39:45.989Z,12.15
2023-05-10T04:41:18.230Z,12.75
2023-05-10T04:42:50.431Z,11.98
2023-05-10T04:44:22.625Z,11.43
2023-05-10T04:45:58.338Z,11.30
2023-05-10T04:47:30.457Z,11.23
2023-05-10T04:49:02.633Z,11.90
2023-05-10T04:50:34.921Z,12.50
2023-05-10T04:52:07.090Z,12.57
2023-05-10T04:53:39.574Z,13.10
2023-05-10T04:55:11.843Z,11.47
2023-05-10T04:56:46.749Z,12.35
2023-05-10T04:58:18.913Z,12.13
2023-05-10T04:59:51.097Z,13.30
2023-05-10T05:01:24.509Z,12.95
2023-05-10T05:02:56.771Z,11.85
2023-05-10T05:04:29.068Z,11.40
2023-05-10T05:06:01.379Z,12.13
2023-05-10T05:07:33.815Z,12.00
2023-05-10T05:09:05.998Z,11.50
2023-05-10T05:10:38.203Z,11.50
2023-05-10T05:12:11.312Z,11.07
2023-05-10T05:13:43.469Z,10.98
2023-05-10T05:15:16.773Z,11.40
2023-05-10T05:16:48.922Z,10.90
2023-05-10T05:18:21.071Z,11.18
2023-05-10T05:19:53.255Z,10.65
2023-05-10T05:21:26.519Z,11.50
2023-05-10T05:22:58.612Z,11.02
2023-05-10T05:24:30.686Z,10.68
2023-05-10T05:26:02.876Z,10.35
2023-05-10T05:29:17.253Z,10.77
2023-05-10T05:30:49.559Z,11.05
2023-05-10T05:32:21.898Z,11.00
2023-05-10T05:33:54.133Z,10.27
2023-05-10T05:35:26.376Z,10.20
2023-05-10T05:36:58.574Z,10.80
2023-05-10T05:38:30.730Z,10.82
2023-05-10T05:40:03.200Z,12.07
2023-05-10T05:41:35.401Z,12.53
2023-05-10T05:43:07.595Z,10.25
2023-05-10T05:44:39.949Z,11.18
2023-05-10T05:46:12.148Z,10.80
2023-05-10T05:47:44.362Z,12.30
2023-05-10T05:49:16.541Z,11.10
2023-05-10T05:50:51.547Z,10.45
2023-05-10T05:52:24.386Z,10.23
2023-05-10T05:53:56.995Z,11.85
2023-05-10T05:55:29.212Z,11.43
2023-05-10T05:57:02.291Z,11.55
2023-05-10T05:58:34.477Z,15.55
2023-05-10T06:00:07.440Z,12.77
2023-05-10T06:03:18.553Z,13.13
2023-05-10T06:04:50.949Z,12.13
2023-05-10T06:06:23.080Z,13.55
2023-05-10T06:07:55.251Z,10.70
2023-05-10T06:09:27.415Z,11.00
2023-05-10T06:10:59.529Z,12.05
2023-05-10T06:12:31.792Z,12.75
2023-05-10T06:14:09.281Z,11.57
2023-05-10T06:15:44.098Z,11.35
2023-05-10T06:17:16.220Z,11.07
2023-05-10T06:18:48.418Z,11.40
2023-05-10T06:20:20.558Z,10.70
2023-05-10T06:21:53.837Z,10.95
2023-05-10T06:24:59.016Z,10.10
2023-05-10T06:26:31.437Z,9.73
2023-05-10T06:28:03.680Z,10.40
2023-05-10T06:29:35.784Z,9.43
2023-05-10T06:31:08.246Z,10.00
2023-05-10T06:32:40.513Z,9.87
2023-05-10T06:34:13.153Z,9.52
2023-05-10T06:35:45.357Z,10.13
2023-05-10T06:37:17.516Z,9.02
2023-05-10T06:38:49.955Z,9.07
2023-05-10T06:40:22.180Z,9.98
2023-05-10T06:41:54.625Z,9.02
2023-05-10T06:43:27.647Z,9.65
2023-05-10T06:44:59.754Z,9.25
2023-05-10T06:46:32.001Z,9.98
2023-05-10T06:48:04.427Z,8.95
2023-05-10T06:49:36.887Z,9.02
2023-05-10T06:51:08.981Z,8.52
2023-05-10T06:52:41.512Z,9.18
2023-05-10T06:54:13.794Z,9.02
2023-05-10T06:55:45.990Z,10.10
2023-05-10T06:57:30.521Z,9.43
2023-05-10T06:59:04.387Z,9.77
2023-05-10T07:02:08.473Z,10.18
2023-05-10T07:03:40.706Z,9.35
2023-05-10T07:05:13.753Z,10.30
2023-05-10T07:06:47.752Z,10.65
2023-05-10T07:08:20.095Z,11.07
2023-05-10T07:09:52.652Z,10.43
2023-05-10T07:11:25.178Z,10.38
2023-05-10T07:12:57.371Z,10.53
2023-05-10T07:14:29.609Z,9.18
2023-05-10T07:16:03.379Z,8.77
2023-05-10T07:17:35.770Z,9.45
2023-05-10T07:19:08.233Z,10.10
2023-05-10T07:20:40.320Z,9.15
2023-05-10T07:22:12.932Z,9.75
2023-05-10T07:23:45.305Z,7.55
2023-05-10T07:25:17.829Z,8.02
2023-05-10T07:26:50.165Z,9.52
2023-05-10T07:28:22.466Z,8.43
2023-05-10T07:29:54.642Z,8.52
2023-05-10T07:31:26.769Z,9.40
2023-05-10T07:32:59.102Z,9.50
2023-05-10T08:16:41.534Z,9.35
2023-05-10T08:18:13.776Z,8.27
2023-05-10T08:19:46.082Z,10.00
2023-05-10T08:21:18.256Z,7.90
2023-05-10T08:22:52.023Z,7.05
2023-05-10T08:24:24.381Z,8.35
2023-05-10T08:25:56.491Z,6.10
2023-05-10T08:27:28.647Z,6.45
2023-05-10T08:29:00.791Z,6.10
2023-05-10T08:30:33.006Z,6.47
2023-05-10T08:32:05.303Z,6.05
2023-05-10T08:33:37.560Z,8.38
2023-05-10T08:35:09.847Z,7.22
2023-05-10T08:36:41.981Z,6.03
2023-05-10T08:38:14.325Z,11.60
2023-05-10T08:39:49.310Z,6.40
2023-05-10T08:41:22.670Z,5.63
2023-05-10T08:44:38.268Z,5.57
2023-05-10T08:47:42.787Z,5.50
2023-05-10T08:49:19.959Z,5.70
2023-05-10T08:50:54.678Z,4.90
2023-05-10T08:52:28.149Z,5.55
2023-05-10T08:54:00.980Z,5.32
2023-05-10T08:55:34.972Z,5.10
2023-05-10T08:57:07.436Z,4.75
2023-05-10T08:58:40.182Z,4.87
2023-05-10T09:00:13.171Z,6.25
2023-05-10T09:01:47.123Z,5.43
2023-05-10T09:03:19.596Z,5.72
2023-05-10T09:04:51.751Z,5.13
2023-05-10T09:06:24.717Z,4.88
2023-05-10T09:07:57.187Z,6.68
2023-05-10T09:09:29.657Z,5.95
2023-05-10T09:11:02.898Z,5.30
2023-05-10T09:12:35.062Z,5.90
2023-05-10T09:14:07.235Z,6.82
2023-05-10T09:15:40.011Z,5.35
2023-05-10T09:17:12.296Z,5.22
2023-05-10T09:18:44.507Z,7.38
2023-05-10T09:20:18.785Z,6.55
2023-05-10T09:21:51.161Z,5.55
2023-05-10T09:23:23.571Z,4.47
2023-05-10T09:25:17.817Z,4.30
2023-05-10T09:26:50.521Z,4.10
2023-05-10T09:28:22.705Z,4.38
2023-05-10T09:29:56.467Z,4.50
2023-05-10T09:31:48.620Z,4.70
2023-05-10T09:33:21.123Z,4.20
2023-05-10T09:34:53.209Z,4.30
2023-05-10T09:36:25.454Z,4.57
2023-05-10T09:38:00.536Z,4.93
2023-05-10T09:39:37.138Z,4.63
2023-05-10T09:41:18.404Z,4.80
2023-05-10T09:42:59.788Z,4.47
2023-05-10T09:44:34.032Z,4.45
2023-05-10T09:46:11.001Z,4.55
2023-05-10T09:47:43.157Z,4.60
2023-05-10T09:49:16.185Z,4.45
2023-05-10T09:50:58.748Z,4.68
2023-05-10T09:52:50.620Z,4.65
2023-05-10T09:54:25.248Z,4.70
2023-05-10T09:55:57.565Z,4.65
2023-05-10T09:57:29.648Z,4.22
2023-05-10T09:59:05.182Z,4.28
2023-05-10T10:00:38.913Z,4.03
2023-05-10T10:02:11.463Z,3.90
2023-05-10T10:03:44.761Z,4.00
2023-05-10T10:07:00.293Z,4.00
2023-05-10T10:08:32.483Z,3.72
2023-05-10T10:10:06.183Z,4.18
2023-05-10T10:11:39.857Z,4.10
2023-05-10T10:13:12.283Z,4.15
2023-05-10T10:14:44.987Z,4.83
2023-05-10T10:16:17.351Z,5.20
2023-05-10T10:17:50.370Z,4.45
2023-05-10T10:19:22.867Z,5.18
2023-05-10T10:20:55.898Z,4.95
2023-05-10T10:22:28.102Z,4.00
2023-05-10T10:24:00.293Z,4.43
2023-05-10T10:25:32.713Z,4.15
2023-05-10T10:27:20.486Z,4.07
2023-05-10T10:29:26.496Z,3.55
2023-05-10T10:31:03.565Z,3.65
2023-05-10T10:33:20.183Z,3.55
2023-05-10T10:34:59.452Z,3.97
2023-05-10T10:36:31.878Z,4.25
2023-05-10T10:38:04.059Z,5.33
2023-05-10T10:39:38.082Z,4.63
2023-05-10T10:41:29.368Z,3.92
2023-05-10T10:43:24.495Z,4.03
2023-05-10T10:45:13.943Z,3.63
2023-05-10T10:47:07.687Z,4.05
2023-05-10T10:48:39.964Z,4.00
2023-05-10T10:50:14.248Z,4.18
2023-05-10T10:52:18.145Z,5.15
2023-05-10T10:53:50.599Z,3.73
2023-05-10T10:55:25.056Z,3.30
2023-05-10T10:57:16.214Z,5.22
2023-05-10T10:58:53.957Z,5.82
2023-05-10T11:00:38.003Z,3.83
2023-05-10T11:02:10.374Z,3.42
2023-05-10T11:04:03.233Z,3.80
2023-05-10T11:05:52.571Z,4.35
2023-05-10T11:07:24.684Z,4.35
2023-05-10T11:08:56.740Z,3.95
2023-05-10T11:10:30.147Z,3.67
2023-05-10T11:12:09.980Z,3.47
2023-05-10T11:13:49.160Z,3.25
2023-05-10T11:15:31.305Z,3.17
2023-05-10T11:17:03.499Z,3.30
2023-05-10T11:18:38.149Z,3.30
2023-05-10T11:20:16.316Z,3.40
2023-05-10T11:21:55.421Z,3.60
2023-05-10T11:23:34.949Z,3.53
2023-05-10T11:25:07.755Z,3.35
2023-05-10T11:26:39.949Z,3.40
2023-05-10T11:29:46.913Z,3.35
2023-05-10T11:32:51.722Z,3.50
2023-05-10T11:34:28.011Z,4.18
2023-05-10T11:36:00.272Z,3.47
2023-05-10T11:37:35.680Z,3.30
2023-05-10T11:39:07.831Z,3.08
2023-05-10T11:40:41.232Z,3.08
2023-05-10T11:42:13.822Z,3.50
2023-05-10T11:43:49.047Z,3.58
2023-05-10T11:45:21.271Z,2.97
2023-05-10T11:46:53.527Z,2.90
2023-05-10T11:48:25.797Z,3.05
2023-05-10T11:49:58.775Z,2.97
2023-05-10T11:51:31.528Z,3.25
2023-05-10T11:53:03.670Z,2.90
2023-05-10T11:54:36.512Z,3.30
2023-05-10T11:56:10.576Z,2.80
2023-05-10T11:57:43.961Z,3.20
2023-05-10T12:00:48.813Z,3.88
2023-05-10T12:02:20.982Z,3.15
2023-05-10T12:03:54.847Z,3.05
2023-05-10T12:05:27.233Z,2.83
2023-05-10T12:06:59.554Z,2.95
2023-05-10T12:08:32.277Z,2.95
2023-05-10T12:10:16.166Z,2.80
2023-05-10T12:11:48.606Z,2.80
2023-05-10T12:13:21.982Z,2.92
2023-05-10T12:14:54.115Z,2.83
2023-05-10T12:16:28.429Z,3.20
2023-05-10T12:18:01.274Z,2.60
2023-05-10T12:19:40.289Z,3.28
2023-05-10T12:21:16.699Z,3.03
2023-05-10T12:22:53.156Z,2.63
2023-05-10T12:24:26.779Z,2.92
2023-05-10T12:26:05.593Z,3.15
2023-05-10T12:27:37.922Z,2.92
2023-05-10T12:29:20.793Z,2.90
2023-05-10T12:30:54.843Z,2.83
2023-05-10T12:32:53.706Z,3.40
2023-05-10T12:34:32.848Z,3.17
2023-05-10T12:36:05.239Z,3.70
2023-05-10T12:37:40.333Z,3.08
2023-05-10T12:39:13.067Z,3.88
2023-05-10T12:40:45.188Z,2.90
2023-05-10T12:42:18.067Z,2.78
2023-05-10T12:43:50.236Z,3.05
2023-05-10T12:45:22.419Z,3.00
2023-05-10T12:46:54.476Z,3.33
2023-05-10T12:48:26.581Z,3.97
2023-05-10T12:49:58.813Z,2.95
2023-05-10T12:51:32.168Z,2.90
2023-05-10T12:54:39.246Z,2.53
2023-05-10T12:56:11.386Z,3.15
2023-05-10T12:57:43.443Z,2.92
2023-05-10T12:59:15.683Z,2.80
2023-05-10T13:00:48.074Z,2.65
2023-05-10T13:02:20.676Z,2.92
2023-05-10T13:03:53.006Z,2.97
2023-05-10T13:05:25.083Z,2.58
2023-05-10T13:07:00.168Z,2.75
2023-05-10T13:08:34.864Z,2.55
2023-05-10T13:10:08.047Z,2.80
2023-05-10T13:11:40.228Z,2.50
2023-05-10T13:13:12.424Z,2.50
2023-05-10T13:14:44.618Z,2.50
2023-05-10T13:16:16.784Z,2.88
2023-05-10T13:17:49.344Z,2.70
2023-05-10T13:19:21.689Z,2.78
2023-05-10T13:20:55.358Z,2.90
2023-05-10T13:22:39.265Z,2.92
2023-05-10T13:24:15.171Z,2.47
2023-05-10T13:25:47.388Z,2.58
2023-05-10T13:27:19.621Z,3.05
2023-05-10T13:28:53.052Z,2.70
2023-05-10T13:30:25.486Z,2.70
2023-05-10T13:31:57.792Z,2.40
2023-05-10T13:33:29.921Z,2.80
2023-05-10T13:35:02.184Z,2.60
2023-05-10T13:36:34.335Z,2.85
2023-05-10T13:38:09.263Z,2.90
2023-05-10T13:39:41.462Z,2.45
2023-05-10T13:41:13.690Z,2.80
2023-05-10T13:42:45.935Z,2.72
2023-05-10T13:44:18.090Z,3.00
2023-05-10T13:45:50.243Z,3.10
2023-05-10T13:47:23.089Z,2.50
2023-05-10T13:48:55.651Z,2.60
2023-05-10T13:50:28.372Z,2.47
2023-05-10T13:52:00.576Z,2.72
2023-05-10T13:53:32.739Z,2.47
2023-05-10T13:55:05.308Z,2.75
2023-05-10T13:56:42.236Z,2.47
2023-05-10T13:58:14.528Z,2.60
2023-05-10T13:59:46.832Z,2.70
2023-05-10T14:01:19.018Z,3.20
2023-05-10T14:02:51.292Z,2.47
2023-05-10T14:04:23.477Z,2.85
2023-05-10T14:05:55.616Z,3.00
2023-05-10T14:07:27.797Z,2.72
2023-05-10T14:09:00.068Z,2.63
2023-05-10T14:10:32.222Z,2.65
2023-05-10T14:12:04.433Z,2.78
2023-05-10T14:13:36.905Z,2.80
2023-05-10T14:15:09.577Z,2.72
2023-05-10T14:16:45.635Z,2.47
2023-05-10T14:18:17.809Z,2.65
2023-05-10T14:19:49.993Z,2.50
2023-05-10T14:21:22.127Z,2.70
2023-05-10T14:22:54.239Z,2.55
2023-05-10T14:24:26.392Z,2.55
2023-05-10T14:25:58.787Z,2.75
2023-05-10T14:27:31.680Z,2.42
2023-05-10T14:29:03.804Z,2.80
2023-05-10T14:30:35.930Z,2.42
2023-05-10T14:32:08.437Z,2.60
2023-05-10T14:33:40.594Z,2.72
2023-05-10T14:35:16.038Z,2.75
2023-05-10T14:36:49.896Z,2.70
2023-05-10T14:38:22.042Z,2.40
2023-05-10T14:39:54.101Z,2.60
2023-05-10T14:41:26.352Z,2.78
2023-05-10T14:42:58.467Z,2.80
2023-05-10T14:44:30.745Z,2.70
2023-05-10T14:46:02.989Z,2.78
2023-05-10T14:47:35.356Z,2.65
2023-05-10T14:49:07.848Z,3.08
2023-05-10T14:50:41.025Z,2.80
2023-05-10T14:53:09.233Z,2.55
2023-05-10T14:54:41.808Z,2.97
2023-05-10T14:56:13.992Z,2.60
2023-05-10T14:57:47.884Z,2.47
2023-05-10T14:59:20.017Z,2.70
2023-05-10T15:00:52.862Z,2.58
2023-05-10T15:02:25.663Z,2.35
2023-05-10T15:03:58.288Z,3.10
2023-05-10T15:05:30.840Z,2.80
2023-05-10T15:07:03.761Z,2.95
2023-05-10T15:08:35.961Z,2.70
2023-05-10T15:10:08.778Z,4.00
2023-05-10T15:11:40.993Z,2.95
2023-05-10T15:13:13.210Z,3.08
2023-05-10T15:14:45.654Z,10.23
2023-05-10T15:16:17.840Z,3.83
2023-05-10T15:17:49.988Z,2.80
2023-05-10T15:19:22.340Z,2.75
2023-05-10T15:20:54.493Z,2.72
2023-05-10T15:22:27.059Z,2.50
2023-05-10T15:23:59.189Z,2.70
2023-05-10T15:25:32.328Z,2.88
2023-05-10T15:27:04.587Z,2.85
2023-05-10T15:28:36.767Z,2.70
2023-05-10T15:30:09.660Z,4.75
2023-05-10T15:31:41.774Z,3.50
2023-05-10T15:33:16.239Z,3.30
2023-05-10T15:34:48.624Z,3.20
2023-05-10T15:36:21.031Z,3.00
2023-05-10T15:37:53.075Z,2.97
2023-05-10T15:39:25.180Z,3.30
2023-05-10T15:40:59.135Z,3.30
2023-05-10T15:42:32.020Z,3.10
2023-05-10T15:44:04.309Z,3.00
2023-05-10T15:47:08.330Z,2.92
2023-05-10T15:48:40.720Z,3.25
2023-05-10T15:50:13.275Z,3.25
2023-05-10T15:51:45.512Z,3.08
2023-05-10T15:53:17.801Z,3.28
2023-05-10T15:54:50.650Z,3.50
2023-05-10T15:56:23.549Z,3.60
2023-05-10T15:57:55.779Z,3.20
2023-05-10T15:59:27.904Z,3.67
2023-05-10T16:01:00.289Z,3.28
2023-05-10T16:02:32.546Z,3.50
2023-05-10T16:04:05.107Z,3.63
2023-05-10T16:05:37.214Z,3.17
2023-05-10T16:07:09.313Z,3.17
2023-05-10T16:08:41.628Z,3.35
2023-05-10T16:10:13.853Z,4.18
2023-05-10T16:11:45.944Z,3.35
2023-05-10T16:13:18.132Z,3.30
2023-05-10T16:16:36.328Z,3.60
2023-05-10T16:18:08.499Z,14.02
2023-05-10T16:19:41.456Z,52.58
2023-05-10T16:21:13.617Z,34.88
2023-05-10T16:22:45.829Z,29.30
2023-05-10T16:24:18.065Z,76.72
2023-05-10T16:25:50.410Z,79.50
2023-05-10T16:27:22.553Z,31.80
2023-05-10T16:28:54.977Z,8.00
2023-05-10T16:30:29.671Z,8.70
2023-05-10T16:32:02.140Z,13.88
2023-05-10T16:33:34.248Z,5.47
2023-05-10T16:35:07.017Z,10.80
2023-05-10T16:36:39.138Z,5.18
2023-05-10T16:38:14.641Z,4.80
2023-05-10T16:39:46.893Z,3.83
2023-05-10T16:41:19.391Z,5.30
2023-05-10T16:42:51.761Z,3.45
2023-05-10T16:46:11.009Z,5.72
2023-05-10T16:47:43.685Z,4.32
2023-05-10T16:49:16.051Z,3.42
2023-05-10T16:50:48.673Z,3.65
2023-05-10T16:52:20.832Z,3.42
2023-05-10T16:53:53.898Z,3.92
2023-05-10T16:55:26.537Z,3.60
2023-05-10T16:56:59.019Z,3.80
2023-05-10T16:58:31.141Z,3.47
2023-05-10T17:00:04.602Z,3.65
2023-05-10T17:01:36.736Z,3.80
2023-05-10T17:03:09.177Z,4.82
2023-05-10T17:04:43.045Z,4.70
2023-05-10T17:06:15.278Z,5.25
2023-05-10T17:07:47.487Z,6.20
2023-05-10T17:09:20.668Z,6.70
2023-05-10T17:10:52.764Z,6.65
2023-05-10T17:12:24.897Z,6.60
2023-05-10T17:13:57.098Z,6.25
2023-05-10T17:15:29.500Z,5.18
2023-05-10T17:17:01.721Z,4.93
2023-05-10T17:18:34.203Z,6.60
2023-05-10T17:21:46.162Z,5.88
2023-05-10T17:23:20.315Z,5.13
2023-05-10T17:24:52.460Z,5.60
2023-05-10T17:26:24.612Z,4.50
2023-05-10T17:27:56.726Z,4.60
2023-05-10T17:29:29.531Z,5.00
2023-05-10T17:31:02.663Z,5.00
2023-05-10T17:32:34.828Z,5.70
2023-05-10T17:34:07.130Z,5.95
2023-05-10T17:35:39.529Z,6.22
2023-05-10T17:37:11.647Z,6.93
2023-05-10T17:38:43.886Z,6.70
2023-05-10T17:40:16.405Z,8.15
2023-05-10T17:41:48.632Z,6.10
2023-05-10T17:43:21.304Z,5.78
2023-05-10T17:44:53.470Z,5.63
2023-05-10T17:46:25.703Z,6.22
2023-05-10T17:47:58.001Z,6.93
2023-05-10T17:49:30.167Z,5.88
2023-05-10T17:51:02.441Z,5.72
2023-05-10T17:52:34.583Z,6.85
2023-05-10T17:55:42.594Z,6.43
2023-05-10T17:57:15.424Z,6.13
2023-05-10T17:58:47.622Z,6.38
2023-05-10T18:00:19.871Z,7.30
2023-05-10T18:01:51.992Z,6.50
2023-05-10T18:03:24.431Z,6.72
2023-05-10T18:04:58.327Z,6.60
2023-05-10T18:06:32.873Z,7.25
2023-05-10T18:08:06.023Z,8.57
2023-05-10T18:09:38.581Z,7.60
2023-05-10T18:11:10.697Z,9.73
2023-05-10T18:12:42.904Z,6.60
2023-05-10T18:14:17.205Z,8.23
2023-05-10T18:15:57.713Z,8.85
2023-05-10T18:17:30.124Z,6.18
2023-05-10T18:19:02.483Z,6.60
2023-05-10T18:20:35.103Z,5.20
2023-05-10T18:22:10.453Z,6.00
2023-05-10T18:23:43.067Z,5.65
2023-05-10T18:25:15.443Z,5.82
2023-05-10T18:26:48.091Z,5.90
2023-05-10T18:28:20.280Z,5.30
2023-05-10T18:29:52.452Z,5.20
2023-05-10T18:31:24.731Z,5.30
2023-05-10T18:32:57.916Z,5.15
2023-05-10T18:34:30.126Z,5.15
2023-05-10T18:36:02.867Z,5.22
2023-05-10T18:37:35.652Z,6.25
2023-05-10T18:39:08.828Z,5.97
2023-05-10T18:40:43.598Z,5.03
2023-05-10T18:42:15.980Z,4.90
2023-05-10T18:43:48.180Z,5.30
2023-05-10T18:45:20.841Z,4.97
2023-05-10T18:46:54.710Z,4.85
2023-05-10T18:48:26.903Z,4.70
2023-05-10T18:49:58.980Z,5.00
2023-05-10T18:51:31.961Z,4.93
2023-05-10T18:53:04.158Z,4.60
2023-05-10T18:54:36.308Z,5.10
2023-05-10T18:56:08.645Z,5.45
2023-05-10T18:57:43.487Z,4.45
2023-05-10T18:59:15.989Z,4.43
2023-05-10T19:00:48.836Z,4.67
2023-05-10T19:02:21.345Z,4.65
2023-05-10T19:03:53.521Z,4.63
2023-05-10T19:05:30.513Z,4.60
2023-05-10T19:07:03.822Z,4.47
2023-05-10T19:08:36.112Z,5.20
2023-05-10T19:10:08.993Z,4.68
2023-05-10T19:11:44.110Z,4.93
2023-05-10T19:13:16.237Z,4.40
2023-05-10T19:14:48.396Z,4.60
2023-05-10T19:16:23.468Z,4.50
2023-05-10T19:17:55.892Z,4.72
2023-05-10T19:19:31.817Z,4.60
2023-05-10T19:21:06.146Z,5.65
2023-05-10T19:22:54.182Z,6.82
2023-05-10T19:24:30.473Z,5.25
2023-05-10T19:26:02.637Z,5.18
2023-05-10T19:27:34.779Z,6.10
2023-05-10T19:29:09.553Z,6.22
2023-05-10T19:30:41.758Z,6.65
2023-05-10T19:32:13.909Z,6.00
2023-05-10T19:33:46.880Z,5.15
2023-05-10T19:35:19.188Z,4.40
2023-05-10T19:36:51.553Z,4.40
2023-05-10T19:38:24.371Z,4.53
2023-05-10T19:39:56.631Z,4.10
2023-05-10T19:41:28.902Z,4.55
2023-05-10T19:43:00.997Z,3.97
2023-05-10T19:44:33.365Z,3.78
2023-05-10T19:46:05.939Z,4.40
2023-05-10T19:47:38.263Z,4.20
2023-05-10T19:49:10.421Z,4.10
2023-05-10T19:50:42.518Z,4.30
2023-05-10T19:52:14.704Z,4.45
2023-05-10T19:53:46.955Z,4.45
2023-05-10T19:55:29.986Z,4.03
2023-05-10T19:57:02.117Z,4.68
2023-05-10T19:58:34.677Z,4.55
2023-05-10T20:00:07.380Z,4.78
2023-05-10T20:01:39.501Z,4.20
2023-05-10T20:03:12.059Z,4.85
2023-05-10T20:04:44.213Z,4.30
2023-05-10T20:06:16.378Z,4.18
2023-05-10T20:07:48.547Z,4.20
2023-05-10T20:09:20.942Z,4.50
2023-05-10T20:10:53.035Z,4.57
2023-05-10T20:12:25.391Z,4.50
2023-05-10T20:13:57.494Z,4.32
2023-05-10T20:15:29.829Z,4.40
2023-05-10T20:17:01.986Z,4.32
2023-05-10T20:18:34.292Z,4.60
2023-05-10T20:20:07.107Z,4.68
2023-05-10T20:21:39.197Z,4.32
2023-05-10T20:24:43.418Z,4.20
2023-05-10T20:26:15.512Z,4.30
2023-05-10T20:27:47.711Z,4.22
2023-05-10T20:29:19.857Z,4.30
2023-05-10T20:30:53.415Z,4.30
2023-05-10T20:32:25.575Z,7.15
2023-05-10T20:33:57.709Z,4.30
2023-05-10T20:35:29.863Z,4.53
2023-05-10T20:37:02.455Z,5.10
2023-05-10T20:38:34.539Z,5.45
2023-05-10T20:40:07.299Z,5.25
2023-05-10T20:41:39.619Z,5.50
2023-05-10T20:43:11.939Z,5.40
2023-05-10T20:44:44.011Z,6.38
2023-05-10T20:46:16.282Z,6.78
2023-05-10T20:47:48.444Z,6.60
2023-05-10T20:49:20.790Z,6.45
2023-05-10T20:50:52.896Z,5.75
2023-05-10T20:52:28.172Z,7.43
2023-05-10T20:54:02.190Z,5.05
2023-05-10T20:55:34.339Z,4.90
2023-05-10T20:57:06.849Z,4.78
2023-05-10T20:58:38.981Z,4.53
2023-05-10T21:00:11.803Z,4.55
2023-05-10T21:01:44.340Z,4.75
2023-05-10T21:03:16.774Z,4.75
2023-05-10T21:04:49.122Z,4.63
2023-05-10T21:06:21.309Z,4.85
2023-05-10T21:07:54.625Z,4.60
2023-05-10T21:09:26.816Z,4.53
2023-05-10T21:10:59.610Z,5.00
2023-05-10T21:12:32.256Z,5.32
2023-05-10T21:14:04.968Z,5.18
2023-05-10T21:15:37.124Z,4.75
2023-05-10T21:17:09.443Z,5.00
2023-05-10T21:18:41.604Z,5.43
2023-05-10T21:20:14.161Z,4.88
2023-05-10T21:21:48.169Z,5.30
2023-05-10T21:23:20.273Z,5.03
2023-05-10T21:24:52.434Z,4.50
2023-05-10T21:26:24.541Z,4.90
2023-05-10T21:27:56.706Z,5.22
2023-05-10T21:29:29.030Z,5.25
2023-05-10T21:31:01.105Z,4.85
2023-05-10T21:32:33.372Z,5.47
2023-05-10T21:34:05.535Z,4.82
2023-05-10T21:35:39.740Z,4.78
2023-05-10T21:37:11.863Z,4.60
2023-05-10T21:38:46.786Z,4.80
2023-05-10T21:40:19.530Z,4.30
2023-05-10T21:41:51.900Z,4.70
2023-05-10T21:43:24.090Z,4.30
2023-05-10T21:44:56.278Z,4.68
2023-05-10T21:46:28.340Z,5.05
2023-05-10T21:48:00.977Z,5.05
2023-05-10T21:49:33.045Z,4.45
2023-05-10T21:51:05.545Z,5.05
2023-05-10T21:52:38.991Z,5.18
2023-05-10T21:54:11.108Z,4.50
2023-05-10T21:55:43.336Z,4.50
2023-05-10T21:57:15.607Z,5.47
2023-05-10T21:58:48.003Z,5.60
2023-05-10T22:00:20.432Z,5.60
2023-05-10T22:01:52.654Z,4.70
2023-05-10T22:03:25.260Z,5.03
2023-05-10T22:04:57.780Z,5.20
2023-05-10T22:06:29.941Z,5.07